SKPV

Details ICAO SKPV (PVA)
Name EL EMBRUJO
Region Colombia
Timezone America/Bogota (UTC-5.0)
Plans Departing 2
Arriving 3
Stats Elevation 10 ft / 3 m (AMSL)
Location 13.356875° -81.358418°
Runways 1
Magnetic Variation 4.024° W
Sunrise 2017-12-15 11:41:48 UTC / 2017-12-15 06:41:48 Local
Sunset 2017-12-15 23:02:22 UTC / 2017-12-15 18:02:22 Local
Advertisement - Login to hide

Runways

ID Width Length Bearing (true) Bearing (mag) Surface Threshold Offset Overrun Length
17 50 ft / 15 m 3,851 ft / 1,174 m 169.09° 173.11° Asphalt 0 ft / 0 m 440 ft / 134 m
35 50 ft / 15 m 3,851 ft / 1,174 m 349.09° 353.11° Asphalt 0 ft / 0 m 350 ft / 107 m

Map

Weather


0- 5 10 15 20 25 30 35+ Temperature / ° C

Clouds and Precipitation
Forecast for 2017-12-15 18:00 UTC. Updated an hour ago

Ground ~20,000 ft ~40,000 ft Winds

METAR

SKPV 151400Z 08004KT 9999 FEW017 28/25 A2993

TAF

Not found

Frequencies

Tower 121.90 MHz TWR
Approach 119.30 MHz SAN ANDRES APP
Warning: Do not use this data for real-world aviation or navigation. No guarantee of current accuracy is given.